sensor_id;sensor_type;location;lat;lon;timestamp;P1;durP1;ratioP1;P2;durP2;ratioP2
62711;SDS011;48772;55.586;37.730;2022-12-10T00:01:46;90.30;;;18.70;;
62711;SDS011;48772;55.586;37.730;2022-12-10T00:04:13;104.15;;;16.95;;
62711;SDS011;48772;55.586;37.730;2022-12-10T00:06:39;168.23;;;20.00;;
62711;SDS011;48772;55.586;37.730;2022-12-10T00:09:07;100.68;;;19.45;;
62711;SDS011;48772;55.586;37.730;2022-12-10T00:11:37;95.78;;;19.42;;
62711;SDS011;48772;55.586;37.730;2022-12-10T00:14:03;80.40;;;19.13;;
62711;SDS011;48772;55.586;37.730;2022-12-10T00:16:29;87.28;;;19.50;;
62711;SDS011;48772;55.586;37.730;2022-12-10T00:18:58;156.50;;;21.40;;
62711;SDS011;48772;55.586;37.730;2022-12-10T00:21:30;122.15;;;20.58;;
62711;SDS011;48772;55.586;37.730;2022-12-10T00:23:58;81.40;;;20.40;;
62711;SDS011;48772;55.586;37.730;2022-12-10T00:26:26;98.35;;;20.30;;
62711;SDS011;48772;55.586;37.730;2022-12-10T00:28:54;78.05;;;18.20;;
62711;SDS011;48772;55.586;37.730;2022-12-10T00:31:25;99.43;;;19.55;;
62711;SDS011;48772;55.586;37.730;2022-12-10T00:33:54;80.50;;;18.85;;
62711;SDS011;48772;55.586;37.730;2022-12-10T00:36:22;50.05;;;14.75;;
62711;SDS011;48772;55.586;37.730;2022-12-10T00:38:51;69.15;;;18.73;;
62711;SDS011;48772;55.586;37.730;2022-12-10T00:41:18;108.32;;;21.23;;
62711;SDS011;48772;55.586;37.730;2022-12-10T00:43:44;85.60;;;21.13;;
62711;SDS011;48772;55.586;37.730;2022-12-10T00:46:11;83.47;;;19.15;;
62711;SDS011;48772;55.586;37.730;2022-12-10T00:48:39;68.75;;;16.67;;
62711;SDS011;48772;55.586;37.730;2022-12-10T00:51:07;82.50;;;20.30;;
62711;SDS011;48772;55.586;37.730;2022-12-10T00:53:36;82.50;;;21.13;;
62711;SDS011;48772;55.586;37.730;2022-12-10T00:56:05;78.22;;;18.52;;
62711;SDS011;48772;55.586;37.730;2022-12-10T00:58:33;82.60;;;19.77;;
62711;SDS011;48772;55.586;37.730;2022-12-10T01:03:41;95.28;;;19.08;;
62711;SDS011;48772;55.586;37.730;2022-12-10T01:06:16;78.70;;;19.50;;
62711;SDS011;48772;55.586;37.730;2022-12-10T01:09:00;78.10;;;20.63;;
62711;SDS011;48772;55.586;37.730;2022-12-10T01:11:29;81.10;;;20.13;;
62711;SDS011;48772;55.586;37.730;2022-12-10T01:13:57;64.78;;;17.27;;
62711;SDS011;48772;55.586;37.730;2022-12-10T01:16:24;76.85;;;20.27;;
62711;SDS011;48772;55.586;37.730;2022-12-10T01:18:54;79.88;;;21.55;;
62711;SDS011;48772;55.586;37.730;2022-12-10T01:21:21;63.65;;;20.75;;
62711;SDS011;48772;55.586;37.730;2022-12-10T01:23:48;68.50;;;20.30;;
62711;SDS011;48772;55.586;37.730;2022-12-10T01:26:17;79.55;;;22.27;;
62711;SDS011;48772;55.586;37.730;2022-12-10T01:28:44;75.10;;;20.17;;
62711;SDS011;48772;55.586;37.730;2022-12-10T01:31:11;64.60;;;21.10;;
62711;SDS011;48772;55.586;37.730;2022-12-10T01:33:39;79.10;;;19.98;;
62711;SDS011;48772;55.586;37.730;2022-12-10T01:36:10;85.75;;;20.83;;
62711;SDS011;48772;55.586;37.730;2022-12-10T01:38:44;87.55;;;22.52;;
62711;SDS011;48772;55.586;37.730;2022-12-10T01:41:15;73.53;;;20.35;;
62711;SDS011;48772;55.586;37.730;2022-12-10T01:46:20;70.50;;;19.15;;
62711;SDS011;48772;55.586;37.730;2022-12-10T01:48:48;68.38;;;19.58;;
62711;SDS011;48772;55.586;37.730;2022-12-10T01:51:16;77.47;;;22.50;;
62711;SDS011;48772;55.586;37.730;2022-12-10T01:53:42;80.97;;;21.88;;
62711;SDS011;48772;55.586;37.730;2022-12-10T01:56:10;78.85;;;20.63;;
62711;SDS011;48772;55.586;37.730;2022-12-10T01:58:37;80.13;;;22.60;;
62711;SDS011;48772;55.586;37.730;2022-12-10T02:01:11;82.10;;;22.52;;
62711;SDS011;48772;55.586;37.730;2022-12-10T02:12:33;66.40;;;20.15;;
62711;SDS011;48772;55.586;37.730;2022-12-10T02:15:17;69.95;;;21.63;;
62711;SDS011;48772;55.586;37.730;2022-12-10T02:20:53;72.57;;;21.15;;
62711;SDS011;48772;55.586;37.730;2022-12-10T02:23:24;67.65;;;19.90;;
62711;SDS011;48772;55.586;37.730;2022-12-10T02:25:56;61.22;;;20.67;;
62711;SDS011;48772;55.586;37.730;2022-12-10T02:28:41;72.35;;;21.95;;
62711;SDS011;48772;55.586;37.730;2022-12-10T02:31:17;65.60;;;18.50;;
62711;SDS011;48772;55.586;37.730;2022-12-10T02:33:46;66.95;;;20.70;;
62711;SDS011;48772;55.586;37.730;2022-12-10T02:36:16;58.13;;;20.00;;
62711;SDS011;48772;55.586;37.730;2022-12-10T02:38:47;57.70;;;19.50;;
62711;SDS011;48772;55.586;37.730;2022-12-10T02:41:20;56.88;;;19.05;;
62711;SDS011;48772;55.586;37.730;2022-12-10T02:43:53;63.67;;;19.75;;
62711;SDS011;48772;55.586;37.730;2022-12-10T02:46:22;56.25;;;17.98;;
62711;SDS011;48772;55.586;37.730;2022-12-10T02:48:54;74.18;;;20.50;;
62711;SDS011;48772;55.586;37.730;2022-12-10T02:51:20;57.00;;;17.95;;
62711;SDS011;48772;55.586;37.730;2022-12-10T02:53:46;53.22;;;17.58;;
62711;SDS011;48772;55.586;37.730;2022-12-10T02:56:14;51.30;;;16.77;;
62711;SDS011;48772;55.586;37.730;2022-12-10T02:59:00;46.95;;;17.13;;
62711;SDS011;48772;55.586;37.730;2022-12-10T03:02:02;71.55;;;21.02;;
62711;SDS011;48772;55.586;37.730;2022-12-10T03:07:27;54.38;;;18.42;;
62711;SDS011;48772;55.586;37.730;2022-12-10T03:10:06;71.57;;;21.67;;
62711;SDS011;48772;55.586;37.730;2022-12-10T03:12:59;55.28;;;18.45;;
62711;SDS011;48772;55.586;37.730;2022-12-10T03:15:27;54.45;;;17.85;;
62711;SDS011;48772;55.586;37.730;2022-12-10T03:17:56;61.67;;;18.77;;
62711;SDS011;48772;55.586;37.730;2022-12-10T03:20:26;67.40;;;20.40;;
62711;SDS011;48772;55.586;37.730;2022-12-10T03:22:52;68.45;;;21.15;;
62711;SDS011;48772;55.586;37.730;2022-12-10T03:25:19;66.28;;;19.15;;
62711;SDS011;48772;55.586;37.730;2022-12-10T03:27:49;74.10;;;20.20;;
62711;SDS011;48772;55.586;37.730;2022-12-10T03:30:19;67.97;;;20.95;;
62711;SDS011;48772;55.586;37.730;2022-12-10T03:32:45;57.03;;;17.98;;
62711;SDS011;48772;55.586;37.730;2022-12-10T03:35:12;67.60;;;19.45;;
62711;SDS011;48772;55.586;37.730;2022-12-10T03:37:40;75.93;;;21.30;;
62711;SDS011;48772;55.586;37.730;2022-12-10T03:40:06;63.28;;;19.45;;
62711;SDS011;48772;55.586;37.730;2022-12-10T03:42:36;66.63;;;21.02;;
62711;SDS011;48772;55.586;37.730;2022-12-10T03:45:03;64.05;;;20.38;;
62711;SDS011;48772;55.586;37.730;2022-12-10T03:47:29;63.95;;;19.52;;
62711;SDS011;48772;55.586;37.730;2022-12-10T03:49:55;76.80;;;20.08;;
62711;SDS011;48772;55.586;37.730;2022-12-10T03:52:21;68.28;;;20.23;;
62711;SDS011;48772;55.586;37.730;2022-12-10T03:54:47;71.97;;;20.77;;
62711;SDS011;48772;55.586;37.730;2022-12-10T03:57:12;80.70;;;23.85;;
62711;SDS011;48772;55.586;37.730;2022-12-10T03:59:38;60.72;;;19.55;;
62711;SDS011;48772;55.586;37.730;2022-12-10T04:02:04;67.55;;;20.15;;
62711;SDS011;48772;55.586;37.730;2022-12-10T04:04:30;73.75;;;22.33;;
62711;SDS011;48772;55.586;37.730;2022-12-10T04:06:55;72.30;;;22.35;;
62711;SDS011;48772;55.586;37.730;2022-12-10T04:09:21;66.88;;;18.38;;
62711;SDS011;48772;55.586;37.730;2022-12-10T04:11:47;74.57;;;21.60;;
62711;SDS011;48772;55.586;37.730;2022-12-10T04:14:12;85.70;;;24.25;;
62711;SDS011;48772;55.586;37.730;2022-12-10T04:16:57;70.28;;;21.40;;
62711;SDS011;48772;55.586;37.730;2022-12-10T04:19:24;79.25;;;24.15;;
62711;SDS011;48772;55.586;37.730;2022-12-10T04:21:49;83.03;;;24.58;;
62711;SDS011;48772;55.586;37.730;2022-12-10T04:24:36;66.60;;;21.30;;
62711;SDS011;48772;55.586;37.730;2022-12-10T04:27:23;80.80;;;22.73;;
62711;SDS011;48772;55.586;37.730;2022-12-10T04:29:49;86.90;;;23.85;;
62711;SDS011;48772;55.586;37.730;2022-12-10T04:32:15;73.43;;;21.42;;
62711;SDS011;48772;55.586;37.730;2022-12-10T04:34:42;80.93;;;22.45;;
62711;SDS011;48772;55.586;37.730;2022-12-10T04:37:08;73.18;;;23.10;;
62711;SDS011;48772;55.586;37.730;2022-12-10T04:39:34;79.40;;;22.13;;
62711;SDS011;48772;55.586;37.730;2022-12-10T04:42:00;81.45;;;21.98;;
62711;SDS011;48772;55.586;37.730;2022-12-10T04:44:26;75.47;;;23.33;;
62711;SDS011;48772;55.586;37.730;2022-12-10T04:46:52;75.32;;;23.05;;
62711;SDS011;48772;55.586;37.730;2022-12-10T04:49:18;76.13;;;24.13;;
62711;SDS011;48772;55.586;37.730;2022-12-10T04:51:44;75.38;;;21.65;;
62711;SDS011;48772;55.586;37.730;2022-12-10T04:54:10;79.95;;;23.00;;
62711;SDS011;48772;55.586;37.730;2022-12-10T04:56:36;72.03;;;22.58;;
62711;SDS011;48772;55.586;37.730;2022-12-10T04:59:02;68.53;;;21.92;;
62711;SDS011;48772;55.586;37.730;2022-12-10T05:01:29;75.70;;;22.42;;
62711;SDS011;48772;55.586;37.730;2022-12-10T05:03:57;66.10;;;22.15;;
62711;SDS011;48772;55.586;37.730;2022-12-10T05:06:24;63.85;;;20.70;;
62711;SDS011;48772;55.586;37.730;2022-12-10T05:08:50;78.90;;;24.98;;
62711;SDS011;48772;55.586;37.730;2022-12-10T05:11:20;77.40;;;24.90;;
62711;SDS011;48772;55.586;37.730;2022-12-10T05:13:47;79.32;;;24.80;;
62711;SDS011;48772;55.586;37.730;2022-12-10T05:16:14;78.10;;;24.42;;
62711;SDS011;48772;55.586;37.730;2022-12-10T05:18:41;69.40;;;22.15;;
62711;SDS011;48772;55.586;37.730;2022-12-10T05:21:09;75.03;;;22.20;;
62711;SDS011;48772;55.586;37.730;2022-12-10T05:23:38;69.60;;;23.45;;
62711;SDS011;48772;55.586;37.730;2022-12-10T05:26:06;79.22;;;22.98;;
62711;SDS011;48772;55.586;37.730;2022-12-10T05:28:35;83.93;;;23.65;;
62711;SDS011;48772;55.586;37.730;2022-12-10T05:31:16;82.55;;;23.65;;
62711;SDS011;48772;55.586;37.730;2022-12-10T05:33:46;65.65;;;21.40;;
62711;SDS011;48772;55.586;37.730;2022-12-10T05:36:14;60.95;;;20.10;;
62711;SDS011;48772;55.586;37.730;2022-12-10T05:38:41;70.68;;;20.50;;
62711;SDS011;48772;55.586;37.730;2022-12-10T05:41:09;68.63;;;20.55;;
62711;SDS011;48772;55.586;37.730;2022-12-10T05:43:37;64.22;;;19.85;;
62711;SDS011;48772;55.586;37.730;2022-12-10T05:46:04;79.68;;;20.98;;
62711;SDS011;48772;55.586;37.730;2022-12-10T05:48:31;77.25;;;22.75;;
62711;SDS011;48772;55.586;37.730;2022-12-10T05:51:02;63.88;;;18.98;;
62711;SDS011;48772;55.586;37.730;2022-12-10T05:53:29;66.50;;;20.02;;
62711;SDS011;48772;55.586;37.730;2022-12-10T05:56:01;73.45;;;19.25;;
62711;SDS011;48772;55.586;37.730;2022-12-10T05:58:29;73.18;;;21.17;;
62711;SDS011;48772;55.586;37.730;2022-12-10T06:00:55;63.22;;;19.58;;
62711;SDS011;48772;55.586;37.730;2022-12-10T06:03:22;70.35;;;20.70;;
62711;SDS011;48772;55.586;37.730;2022-12-10T06:05:48;71.28;;;19.75;;
62711;SDS011;48772;55.586;37.730;2022-12-10T06:08:13;71.28;;;17.88;;
62711;SDS011;48772;55.586;37.730;2022-12-10T06:10:42;95.57;;;21.67;;
62711;SDS011;48772;55.586;37.730;2022-12-10T06:13:08;65.95;;;18.52;;
62711;SDS011;48772;55.586;37.730;2022-12-10T06:15:37;86.05;;;21.75;;
62711;SDS011;48772;55.586;37.730;2022-12-10T06:18:04;81.18;;;21.15;;
62711;SDS011;48772;55.586;37.730;2022-12-10T06:20:30;91.45;;;23.60;;
62711;SDS011;48772;55.586;37.730;2022-12-10T06:22:56;90.78;;;22.55;;
62711;SDS011;48772;55.586;37.730;2022-12-10T06:25:21;93.10;;;21.75;;
62711;SDS011;48772;55.586;37.730;2022-12-10T06:27:47;99.45;;;23.42;;
62711;SDS011;48772;55.586;37.730;2022-12-10T06:30:13;84.97;;;23.83;;
62711;SDS011;48772;55.586;37.730;2022-12-10T06:32:39;92.68;;;22.05;;
62711;SDS011;48772;55.586;37.730;2022-12-10T06:35:05;121.82;;;25.45;;
62711;SDS011;48772;55.586;37.730;2022-12-10T06:37:31;104.30;;;25.75;;
62711;SDS011;48772;55.586;37.730;2022-12-10T06:39:57;100.70;;;18.88;;
62711;SDS011;48772;55.586;37.730;2022-12-10T06:42:23;65.53;;;20.38;;
62711;SDS011;48772;55.586;37.730;2022-12-10T06:44:49;118.07;;;26.02;;
62711;SDS011;48772;55.586;37.730;2022-12-10T06:47:14;95.53;;;24.35;;
62711;SDS011;48772;55.586;37.730;2022-12-10T06:49:40;101.70;;;27.58;;
62711;SDS011;48772;55.586;37.730;2022-12-10T06:52:06;87.82;;;25.73;;
62711;SDS011;48772;55.586;37.730;2022-12-10T06:54:32;89.80;;;22.63;;
62711;SDS011;48772;55.586;37.730;2022-12-10T06:56:59;114.50;;;26.40;;
62711;SDS011;48772;55.586;37.730;2022-12-10T06:59:25;71.85;;;21.30;;
62711;SDS011;48772;55.586;37.730;2022-12-10T07:01:51;103.07;;;24.08;;
62711;SDS011;48772;55.586;37.730;2022-12-10T07:04:16;105.10;;;25.10;;
62711;SDS011;48772;55.586;37.730;2022-12-10T07:06:42;98.53;;;25.70;;
62711;SDS011;48772;55.586;37.730;2022-12-10T07:09:08;116.63;;;27.67;;
62711;SDS011;48772;55.586;37.730;2022-12-10T07:11:35;95.97;;;26.33;;
62711;SDS011;48772;55.586;37.730;2022-12-10T07:14:01;102.30;;;25.80;;
62711;SDS011;48772;55.586;37.730;2022-12-10T07:16:28;108.75;;;27.27;;
62711;SDS011;48772;55.586;37.730;2022-12-10T07:18:56;135.75;;;26.73;;
62711;SDS011;48772;55.586;37.730;2022-12-10T07:21:24;103.50;;;26.27;;
62711;SDS011;48772;55.586;37.730;2022-12-10T07:23:52;96.57;;;24.02;;
62711;SDS011;48772;55.586;37.730;2022-12-10T07:26:21;90.63;;;22.67;;
62711;SDS011;48772;55.586;37.730;2022-12-10T07:28:47;56.30;;;18.08;;
62711;SDS011;48772;55.586;37.730;2022-12-10T07:31:13;79.15;;;19.60;;
62711;SDS011;48772;55.586;37.730;2022-12-10T07:33:39;126.32;;;23.45;;
62711;SDS011;48772;55.586;37.730;2022-12-10T07:36:05;118.97;;;24.90;;
62711;SDS011;48772;55.586;37.730;2022-12-10T07:38:33;99.30;;;24.40;;
62711;SDS011;48772;55.586;37.730;2022-12-10T07:41:02;93.47;;;22.50;;
62711;SDS011;48772;55.586;37.730;2022-12-10T07:43:29;85.30;;;21.70;;
62711;SDS011;48772;55.586;37.730;2022-12-10T07:45:55;110.72;;;24.10;;
62711;SDS011;48772;55.586;37.730;2022-12-10T07:48:21;98.40;;;22.85;;
62711;SDS011;48772;55.586;37.730;2022-12-10T07:50:47;119.75;;;27.98;;
62711;SDS011;48772;55.586;37.730;2022-12-10T07:53:21;97.82;;;25.08;;
62711;SDS011;48772;55.586;37.730;2022-12-10T07:55:46;114.15;;;25.45;;
62711;SDS011;48772;55.586;37.730;2022-12-10T07:58:12;100.10;;;26.23;;
62711;SDS011;48772;55.586;37.730;2022-12-10T08:00:38;107.80;;;23.35;;
62711;SDS011;48772;55.586;37.730;2022-12-10T08:03:04;105.13;;;25.65;;
62711;SDS011;48772;55.586;37.730;2022-12-10T08:05:30;115.25;;;23.33;;
62711;SDS011;48772;55.586;37.730;2022-12-10T08:07:56;104.97;;;25.98;;
62711;SDS011;48772;55.586;37.730;2022-12-10T08:10:21;136.90;;;26.15;;
62711;SDS011;48772;55.586;37.730;2022-12-10T08:12:48;94.13;;;22.27;;
62711;SDS011;48772;55.586;37.730;2022-12-10T08:15:14;100.05;;;22.23;;
62711;SDS011;48772;55.586;37.730;2022-12-10T08:17:40;107.47;;;25.20;;
62711;SDS011;48772;55.586;37.730;2022-12-10T08:20:06;123.80;;;25.63;;
62711;SDS011;48772;55.586;37.730;2022-12-10T08:22:37;124.18;;;26.20;;
62711;SDS011;48772;55.586;37.730;2022-12-10T08:25:04;135.60;;;25.88;;
62711;SDS011;48772;55.586;37.730;2022-12-10T08:27:31;175.43;;;26.63;;
62711;SDS011;48772;55.586;37.730;2022-12-10T08:29:58;94.05;;;25.33;;
62711;SDS011;48772;55.586;37.730;2022-12-10T08:32:24;173.00;;;27.20;;
62711;SDS011;48772;55.586;37.730;2022-12-10T08:34:50;164.13;;;26.10;;
62711;SDS011;48772;55.586;37.730;2022-12-10T08:37:16;167.20;;;29.08;;
62711;SDS011;48772;55.586;37.730;2022-12-10T08:39:42;179.32;;;27.25;;
62711;SDS011;48772;55.586;37.730;2022-12-10T08:42:08;155.05;;;28.48;;
62711;SDS011;48772;55.586;37.730;2022-12-10T08:44:34;122.28;;;27.65;;
62711;SDS011;48772;55.586;37.730;2022-12-10T08:47:00;114.88;;;26.00;;
62711;SDS011;48772;55.586;37.730;2022-12-10T08:49:26;139.25;;;27.25;;
62711;SDS011;48772;55.586;37.730;2022-12-10T08:51:53;245.80;;;30.38;;
62711;SDS011;48772;55.586;37.730;2022-12-10T08:54:19;126.05;;;25.30;;
62711;SDS011;48772;55.586;37.730;2022-12-10T08:56:45;108.50;;;28.38;;
62711;SDS011;48772;55.586;37.730;2022-12-10T08:59:13;139.35;;;30.98;;
62711;SDS011;48772;55.586;37.730;2022-12-10T09:01:45;236.43;;;31.83;;
62711;SDS011;48772;55.586;37.730;2022-12-10T09:04:41;233.13;;;29.75;;
62711;SDS011;48772;55.586;37.730;2022-12-10T09:07:08;156.93;;;28.30;;
62711;SDS011;48772;55.586;37.730;2022-12-10T09:09:47;140.30;;;27.08;;
62711;SDS011;48772;55.586;37.730;2022-12-10T09:12:14;163.15;;;28.60;;
62711;SDS011;48772;55.586;37.730;2022-12-10T09:14:40;146.85;;;28.70;;
62711;SDS011;48772;55.586;37.730;2022-12-10T09:17:07;241.73;;;31.67;;
62711;SDS011;48772;55.586;37.730;2022-12-10T09:19:34;139.27;;;29.33;;
62711;SDS011;48772;55.586;37.730;2022-12-10T09:22:01;141.10;;;27.98;;
62711;SDS011;48772;55.586;37.730;2022-12-10T09:24:27;193.60;;;30.60;;
62711;SDS011;48772;55.586;37.730;2022-12-10T09:26:54;102.65;;;25.55;;
62711;SDS011;48772;55.586;37.730;2022-12-10T09:29:20;182.63;;;29.15;;
62711;SDS011;48772;55.586;37.730;2022-12-10T09:31:50;190.18;;;30.70;;
62711;SDS011;48772;55.586;37.730;2022-12-10T09:34:17;198.30;;;32.22;;
62711;SDS011;48772;55.586;37.730;2022-12-10T09:36:44;188.55;;;33.05;;
62711;SDS011;48772;55.586;37.730;2022-12-10T09:39:11;172.50;;;30.63;;
62711;SDS011;48772;55.586;37.730;2022-12-10T09:47:11;200.88;;;28.27;;
62711;SDS011;48772;55.586;37.730;2022-12-10T09:49:48;226.13;;;31.00;;
62711;SDS011;48772;55.586;37.730;2022-12-10T09:52:32;186.98;;;29.20;;
62711;SDS011;48772;55.586;37.730;2022-12-10T09:55:04;187.35;;;31.27;;
62711;SDS011;48772;55.586;37.730;2022-12-10T09:57:42;170.27;;;30.13;;
62711;SDS011;48772;55.586;37.730;2022-12-10T10:02:58;192.75;;;30.58;;
62711;SDS011;48772;55.586;37.730;2022-12-10T10:05:32;197.90;;;29.20;;
62711;SDS011;48772;55.586;37.730;2022-12-10T10:08:32;161.25;;;27.13;;
62711;SDS011;48772;55.586;37.730;2022-12-10T10:11:25;409.10;;;36.92;;
62711;SDS011;48772;55.586;37.730;2022-12-10T10:13:58;300.65;;;32.70;;
62711;SDS011;48772;55.586;37.730;2022-12-10T10:16:35;501.27;;;35.28;;
62711;SDS011;48772;55.586;37.730;2022-12-10T10:19:16;286.00;;;31.23;;
62711;SDS011;48772;55.586;37.730;2022-12-10T10:21:48;358.73;;;30.40;;
62711;SDS011;48772;55.586;37.730;2022-12-10T10:24:19;319.85;;;32.88;;
62711;SDS011;48772;55.586;37.730;2022-12-10T10:27:13;302.35;;;34.90;;
62711;SDS011;48772;55.586;37.730;2022-12-10T10:29:47;724.30;;;42.38;;
62711;SDS011;48772;55.586;37.730;2022-12-10T10:32:16;184.43;;;28.43;;
62711;SDS011;48772;55.586;37.730;2022-12-10T10:34:52;239.68;;;29.80;;
62711;SDS011;48772;55.586;37.730;2022-12-10T10:37:22;573.15;;;40.28;;
62711;SDS011;48772;55.586;37.730;2022-12-10T10:39:56;383.92;;;33.35;;
62711;SDS011;48772;55.586;37.730;2022-12-10T10:42:38;438.63;;;36.70;;
62711;SDS011;48772;55.586;37.730;2022-12-10T10:48:13;222.43;;;29.60;;
62711;SDS011;48772;55.586;37.730;2022-12-10T10:50:45;443.17;;;35.58;;
62711;SDS011;48772;55.586;37.730;2022-12-10T10:59:28;133.98;;;17.33;;
62711;SDS011;48772;55.586;37.730;2022-12-10T11:01:59;367.77;;;32.15;;
62711;SDS011;48772;55.586;37.730;2022-12-10T11:04:31;391.98;;;32.72;;
62711;SDS011;48772;55.586;37.730;2022-12-10T11:07:04;271.80;;;33.35;;
62711;SDS011;48772;55.586;37.730;2022-12-10T11:09:40;285.48;;;31.27;;
62711;SDS011;48772;55.586;37.730;2022-12-10T11:12:07;276.85;;;31.13;;
62711;SDS011;48772;55.586;37.730;2022-12-10T11:14:53;261.35;;;24.33;;
62711;SDS011;48772;55.586;37.730;2022-12-10T11:17:21;236.68;;;25.23;;
62711;SDS011;48772;55.586;37.730;2022-12-10T11:20:01;163.13;;;23.92;;
62711;SDS011;48772;55.586;37.730;2022-12-10T11:22:51;280.20;;;30.52;;
62711;SDS011;48772;55.586;37.730;2022-12-10T11:25:24;184.70;;;24.52;;
62711;SDS011;48772;55.586;37.730;2022-12-10T11:28:20;175.80;;;25.23;;
62711;SDS011;48772;55.586;37.730;2022-12-10T11:37:29;82.63;;;22.00;;
62711;SDS011;48772;55.586;37.730;2022-12-10T11:40:12;65.45;;;21.58;;
62711;SDS011;48772;55.586;37.730;2022-12-10T11:54:01;64.50;;;23.45;;
62711;SDS011;48772;55.586;37.730;2022-12-10T11:56:47;64.60;;;20.45;;
62711;SDS011;48772;55.586;37.730;2022-12-10T12:10:20;71.47;;;21.73;;
62711;SDS011;48772;55.586;37.730;2022-12-10T12:21:18;51.80;;;18.02;;
62711;SDS011;48772;55.586;37.730;2022-12-10T12:23:55;54.08;;;19.75;;
62711;SDS011;48772;55.586;37.730;2022-12-10T12:26:27;68.97;;;21.52;;
62711;SDS011;48772;55.586;37.730;2022-12-10T12:41:36;57.60;;;19.23;;
62711;SDS011;48772;55.586;37.730;2022-12-10T12:51:41;55.97;;;19.83;;
62711;SDS011;48772;55.586;37.730;2022-12-10T12:54:26;57.85;;;18.27;;
62711;SDS011;48772;55.586;37.730;2022-12-10T12:56:55;66.65;;;20.30;;
62711;SDS011;48772;55.586;37.730;2022-12-10T12:59:48;57.08;;;18.80;;
62711;SDS011;48772;55.586;37.730;2022-12-10T13:05:25;90.25;;;31.75;;
62711;SDS011;48772;55.586;37.730;2022-12-10T13:08:33;94.25;;;32.40;;
62711;SDS011;48772;55.586;37.730;2022-12-10T13:13:36;57.53;;;19.80;;
62711;SDS011;48772;55.586;37.730;2022-12-10T13:19:23;57.65;;;20.48;;
62711;SDS011;48772;55.586;37.730;2022-12-10T13:37:26;51.72;;;18.15;;
62711;SDS011;48772;55.586;37.730;2022-12-10T13:55:59;43.55;;;15.20;;
62711;SDS011;48772;55.586;37.730;2022-12-10T14:06:21;43.97;;;16.55;;
62711;SDS011;48772;55.586;37.730;2022-12-10T14:08:57;46.40;;;16.85;;
62711;SDS011;48772;55.586;37.730;2022-12-10T14:11:25;58.40;;;21.20;;
62711;SDS011;48772;55.586;37.730;2022-12-10T14:13:56;47.92;;;20.02;;
62711;SDS011;48772;55.586;37.730;2022-12-10T14:16:24;56.38;;;20.50;;
62711;SDS011;48772;55.586;37.730;2022-12-10T14:18:55;53.92;;;18.23;;
62711;SDS011;48772;55.586;37.730;2022-12-10T14:21:25;51.63;;;19.80;;
62711;SDS011;48772;55.586;37.730;2022-12-10T14:23:52;53.13;;;19.27;;
62711;SDS011;48772;55.586;37.730;2022-12-10T14:26:19;57.80;;;20.77;;
62711;SDS011;48772;55.586;37.730;2022-12-10T14:28:54;33.13;;;12.98;;
62711;SDS011;48772;55.586;37.730;2022-12-10T14:31:28;53.30;;;19.63;;
62711;SDS011;48772;55.586;37.730;2022-12-10T14:34:11;51.33;;;17.83;;
62711;SDS011;48772;55.586;37.730;2022-12-10T14:36:45;51.37;;;17.90;;
62711;SDS011;48772;55.586;37.730;2022-12-10T14:39:13;47.88;;;17.30;;
62711;SDS011;48772;55.586;37.730;2022-12-10T14:41:50;52.03;;;18.08;;
62711;SDS011;48772;55.586;37.730;2022-12-10T14:47:21;41.67;;;16.35;;
62711;SDS011;48772;55.586;37.730;2022-12-10T14:50:09;28.23;;;11.93;;
62711;SDS011;48772;55.586;37.730;2022-12-10T14:52:52;46.90;;;17.52;;
62711;SDS011;48772;55.586;37.730;2022-12-10T14:55:21;37.78;;;14.20;;
62711;SDS011;48772;55.586;37.730;2022-12-10T15:00:28;48.95;;;18.20;;
62711;SDS011;48772;55.586;37.730;2022-12-10T15:02:59;56.03;;;19.77;;
62711;SDS011;48772;55.586;37.730;2022-12-10T15:05:28;46.80;;;16.70;;
62711;SDS011;48772;55.586;37.730;2022-12-10T15:08:00;47.75;;;17.30;;
62711;SDS011;48772;55.586;37.730;2022-12-10T15:13:00;50.45;;;19.50;;
62711;SDS011;48772;55.586;37.730;2022-12-10T15:15:31;49.42;;;19.02;;
62711;SDS011;48772;55.586;37.730;2022-12-10T15:18:15;39.92;;;15.68;;
62711;SDS011;48772;55.586;37.730;2022-12-10T15:20:50;42.80;;;17.73;;
62711;SDS011;48772;55.586;37.730;2022-12-10T15:28:23;51.03;;;18.77;;
62711;SDS011;48772;55.586;37.730;2022-12-10T15:30:50;51.67;;;18.38;;
62711;SDS011;48772;55.586;37.730;2022-12-10T15:35:57;44.72;;;17.35;;
62711;SDS011;48772;55.586;37.730;2022-12-10T15:38:26;38.55;;;16.42;;
62711;SDS011;48772;55.586;37.730;2022-12-10T15:40:56;38.35;;;15.68;;
62711;SDS011;48772;55.586;37.730;2022-12-10T15:45:55;34.00;;;14.10;;
62711;SDS011;48772;55.586;37.730;2022-12-10T15:48:22;39.40;;;17.88;;
62711;SDS011;48772;55.586;37.730;2022-12-10T15:50:49;33.67;;;14.45;;
62711;SDS011;48772;55.586;37.730;2022-12-10T15:53:25;35.13;;;15.50;;
62711;SDS011;48772;55.586;37.730;2022-12-10T15:55:53;31.35;;;13.85;;
62711;SDS011;48772;55.586;37.730;2022-12-10T15:58:19;29.95;;;13.65;;
62711;SDS011;48772;55.586;37.730;2022-12-10T16:00:45;39.60;;;17.42;;
62711;SDS011;48772;55.586;37.730;2022-12-10T16:03:14;36.45;;;16.40;;
62711;SDS011;48772;55.586;37.730;2022-12-10T16:05:41;39.35;;;18.48;;
62711;SDS011;48772;55.586;37.730;2022-12-10T16:08:23;30.27;;;13.45;;
62711;SDS011;48772;55.586;37.730;2022-12-10T16:10:51;26.02;;;10.45;;
62711;SDS011;48772;55.586;37.730;2022-12-10T16:13:24;48.67;;;18.55;;
62711;SDS011;48772;55.586;37.730;2022-12-10T16:15:58;19.08;;;9.07;;
62711;SDS011;48772;55.586;37.730;2022-12-10T16:18:35;34.85;;;16.23;;
62711;SDS011;48772;55.586;37.730;2022-12-10T16:21:02;31.58;;;13.20;;
62711;SDS011;48772;55.586;37.730;2022-12-10T16:23:29;29.13;;;13.70;;
62711;SDS011;48772;55.586;37.730;2022-12-10T16:25:57;25.42;;;11.13;;
62711;SDS011;48772;55.586;37.730;2022-12-10T16:28:25;21.23;;;9.57;;
62711;SDS011;48772;55.586;37.730;2022-12-10T16:30:52;24.10;;;11.65;;
62711;SDS011;48772;55.586;37.730;2022-12-10T16:33:24;23.23;;;10.88;;
62711;SDS011;48772;55.586;37.730;2022-12-10T16:35:52;21.67;;;10.07;;
62711;SDS011;48772;55.586;37.730;2022-12-10T16:38:19;24.83;;;11.77;;
62711;SDS011;48772;55.586;37.730;2022-12-10T16:40:46;34.45;;;16.00;;
62711;SDS011;48772;55.586;37.730;2022-12-10T16:43:17;23.70;;;11.85;;
62711;SDS011;48772;55.586;37.730;2022-12-10T16:45:47;29.40;;;15.65;;
62711;SDS011;48772;55.586;37.730;2022-12-10T16:48:14;21.65;;;10.90;;
62711;SDS011;48772;55.586;37.730;2022-12-10T16:50:41;17.25;;;8.75;;
62711;SDS011;48772;55.586;37.730;2022-12-10T16:53:16;12.27;;;7.07;;
62711;SDS011;48772;55.586;37.730;2022-12-10T16:55:52;17.90;;;8.95;;
62711;SDS011;48772;55.586;37.730;2022-12-10T16:58:19;14.98;;;8.77;;
62711;SDS011;48772;55.586;37.730;2022-12-10T17:00:47;20.52;;;11.00;;
62711;SDS011;48772;55.586;37.730;2022-12-10T17:03:15;14.88;;;8.38;;
62711;SDS011;48772;55.586;37.730;2022-12-10T17:05:52;23.23;;;11.65;;